Time;durP1;ratioP1;P1;durP2;ratioP2;P2;SDS_P1;SDS_P2;PMS_P1;PMS_P2;Temp;Humidity;BMP_temperature;BMP_pressure;BME280_temperature;BME280_humidity;BME280_pressure;Samples;Min_cycle;Max_cycle;Signal;HPM_P1;HPM_P2
2021/12/04 12:44:43;;;;;;;;;4.25;4.25;;;;;;;;6094595;22;1948727;-83
2021/12/04 12:49:45;;;;;;;;;4.25;3.25;;;;;;;;6146256;22;28979;-83
2021/12/04 12:52:17;;;;;;;;;3.25;1.00;;;;;;;;6139506;23;29191;-83
2021/12/04 12:54:43;;;;;;;;;2.25;2.25;;;;;;;;6141316;23;28564;-83
2021/12/04 12:57:15;;;;;;;;;1.50;1.25;;;;;;;;6140681;23;28507;-83
2021/12/04 13:18:20;;;;;;;;;2.75;2.00;;;;;;;;6173897;23;28634;-86
2021/12/04 13:32:28;;;;;;;;;4.00;2.50;;;;;;;;6143060;22;28681;-85
2021/12/04 13:35:02;;;;;;;;;5.25;2.25;;;;;;;;6140703;23;28524;-84
2021/12/04 13:37:37;;;;;;;;;3.00;1.00;;;;;;;;6112418;23;28602;-85
2021/12/04 13:40:19;;;;;;;;;2.00;0.25;;;;;;;;6135981;23;28375;-84
2021/12/04 13:54:03;;;;;;;;;10.00;5.50;;;;;;;;6190819;22;28859;-85
2021/12/04 13:56:39;;;;;;;;;2.50;2.50;;;;;;;;6193402;23;28500;-84
2021/12/04 13:59:11;;;;;;;;;11.25;11.25;;;;;;;;6159053;23;28438;-83
2021/12/04 14:01:42;;;;;;;;;8.50;6.00;;;;;;;;6162672;23;28554;-83
2021/12/04 14:12:16;;;;;;;;;4.50;3.00;;;;;;;;6173586;22;28746;-86
2021/12/04 14:27:18;;;;;;;;;12.50;11.50;;;;;;;;6175788;22;28452;-85
2021/12/04 14:29:49;;;;;;;;;6.00;6.00;;;;;;;;6138540;23;28591;-86
2021/12/04 14:32:20;;;;;;;;;10.50;6.00;;;;;;;;6162431;23;28433;-85
2021/12/04 14:34:45;;;;;;;;;2.50;2.50;;;;;;;;6136302;23;28508;-86
2021/12/04 14:37:13;;;;;;;;;11.25;8.75;;;;;;;;6137123;23;29666;-86
2021/12/04 14:48:49;;;;;;;;;3.00;3.00;;;;;;;;6165553;23;28547;-88
2021/12/04 14:51:22;;;;;;;;;20.25;17.75;;;;;;;;6163691;23;28527;-85
2021/12/04 14:53:54;;;;;;;;;18.00;16.00;;;;;;;;6139768;23;28910;-86
2021/12/04 14:56:28;;;;;;;;;9.50;7.00;;;;;;;;6139577;23;28566;-85
2021/12/04 14:58:59;;;;;;;;;6.25;4.25;;;;;;;;6164351;23;29295;-86
2021/12/04 15:02:09;;;;;;;;;12.25;10.00;;;;;;;;6142231;23;28891;-86
2021/12/04 15:04:59;;;;;;;;;7.25;7.00;;;;;;;;6135680;23;28566;-85
2021/12/04 15:15:10;;;;;;;;;15.25;13.25;;;;;;;;6155346;22;28309;-85
2021/12/04 15:24:20;;;;;;;;;2.00;1.00;;;;;;;;6173124;23;28394;-85
2021/12/04 15:26:45;;;;;;;;;10.00;3.75;;;;;;;;6137649;23;28631;-86
2021/12/04 15:32:21;;;;;;;;;0.00;0.00;;;;;;;;6174637;23;28484;-85
2021/12/04 15:34:59;;;;;;;;;4.25;1.00;;;;;;;;6116873;22;28867;-86
2021/12/04 15:37:49;;;;;;;;;0.00;0.00;;;;;;;;6170999;23;28554;-85
2021/12/04 15:40:49;;;;;;;;;2.00;1.00;;;;;;;;6137794;23;28488;-85
2021/12/04 15:43:37;;;;;;;;;1.25;1.00;;;;;;;;6012003;23;30020;-86
2021/12/04 15:46:40;;;;;;;;;1.50;1.00;;;;;;;;5993862;23;28684;-85
2021/12/04 15:55:10;;;;;;;;;2.00;1.25;;;;;;;;6167377;22;28555;-85
2021/12/04 15:57:59;;;;;;;;;11.50;10.00;;;;;;;;6132500;23;29758;-86
2021/12/04 16:00:43;;;;;;;;;0.75;0.75;;;;;;;;6139813;23;27979;-85
2021/12/04 16:03:14;;;;;;;;;0.00;0.00;;;;;;;;6134105;23;28469;-85
2021/12/04 16:05:43;;;;;;;;;0.00;0.00;;;;;;;;6138072;23;28521;-86
2021/12/04 16:14:14;;;;;;;;;2.00;0.00;;;;;;;;6159622;22;28498;-86
2021/12/04 16:20:03;;;;;;;;;0.00;0.00;;;;;;;;6169460;23;28523;-85
2021/12/04 16:22:34;;;;;;;;;0.00;0.00;;;;;;;;6129833;23;28566;-85
2021/12/04 16:25:04;;;;;;;;;0.00;0.00;;;;;;;;6135639;23;28665;-86
2021/12/04 16:42:16;;;;;;;;;15.00;11.25;;;;;;;;6191665;22;28367;-85
2021/12/04 16:45:14;;;;;;;;;28.50;16.50;;;;;;;;6214711;23;28433;-84
2021/12/04 16:47:50;;;;;;;;;71.50;49.00;;;;;;;;6157361;23;28064;-84
2021/12/04 16:50:19;;;;;;;;;37.00;29.25;;;;;;;;6142276;23;29589;-83
2021/12/04 16:58:25;;;;;;;;;6.25;4.50;;;;;;;;6203911;22;28902;-84
2021/12/04 17:04:13;;;;;;;;;1.00;1.00;;;;;;;;6174696;23;28600;-83
2021/12/04 17:10:08;;;;;;;;;0.00;0.00;;;;;;;;6202838;23;28388;-83
2021/12/04 17:15:42;;;;;;;;;0.00;0.00;;;;;;;;6204254;23;28459;-83
2021/12/04 17:18:15;;;;;;;;;5.00;4.50;;;;;;;;6194103;23;28509;-84
2021/12/04 17:21:07;;;;;;;;;0.75;0.00;;;;;;;;6197949;22;28434;-84
2021/12/04 17:30:19;;;;;;;;;0.00;0.00;;;;;;;;6163833;23;28504;-83
2021/12/04 17:32:52;;;;;;;;;0.00;0.00;;;;;;;;6136569;23;28435;-84
2021/12/04 17:35:43;;;;;;;;;0.50;0.00;;;;;;;;6136173;23;29922;-83
2021/12/04 17:38:14;;;;;;;;;0.00;0.00;;;;;;;;6182896;23;28498;-83
2021/12/04 17:40:44;;;;;;;;;2.00;0.00;;;;;;;;6199271;23;28562;-84
2021/12/04 17:43:17;;;;;;;;;2.75;2.75;;;;;;;;6193548;23;28466;-84
2021/12/04 17:48:53;;;;;;;;;2.25;0.50;;;;;;;;6202320;23;28700;-83
2021/12/04 17:51:24;;;;;;;;;0.25;0.00;;;;;;;;6195220;23;28335;-84
2021/12/04 17:53:58;;;;;;;;;0.50;0.00;;;;;;;;6194787;22;28521;-84
2021/12/04 17:56:26;;;;;;;;;0.00;0.00;;;;;;;;6194082;23;30137;-84
2021/12/04 17:59:23;;;;;;;;;0.00;0.00;;;;;;;;6198787;23;28979;-83
2021/12/04 18:01:53;;;;;;;;;0.00;0.00;;;;;;;;6192749;23;28839;-84
2021/12/04 18:04:21;;;;;;;;;0.00;0.00;;;;;;;;6219069;22;28850;-85
2021/12/04 18:06:50;;;;;;;;;0.00;0.00;;;;;;;;6196116;23;28353;-84
2021/12/04 18:09:26;;;;;;;;;3.00;0.50;;;;;;;;6192367;23;28589;-85
2021/12/04 18:11:56;;;;;;;;;0.00;0.00;;;;;;;;6193817;22;28482;-85
2021/12/04 18:19:44;;;;;;;;;0.00;0.00;;;;;;;;6200344;22;28977;-84
2021/12/04 18:22:18;;;;;;;;;1.00;0.25;;;;;;;;6191837;22;28585;-85
2021/12/04 18:24:44;;;;;;;;;0.00;0.00;;;;;;;;6191286;23;28237;-84
2021/12/04 18:27:13;;;;;;;;;3.00;1.00;;;;;;;;6192342;23;28886;-84
2021/12/04 18:29:43;;;;;;;;;1.75;1.75;;;;;;;;6194229;22;28564;-85
2021/12/04 18:32:11;;;;;;;;;4.50;1.50;;;;;;;;6188023;23;28555;-85
2021/12/04 18:59:30;;;;;;;;;0.00;0.00;;;;;;;;6262426;22;28476;-85
2021/12/04 19:01:59;;;;;;;;;5.50;1.50;;;;;;;;6260979;22;27930;-85
2021/12/04 19:04:27;;;;;;;;;5.00;3.75;;;;;;;;6260029;22;27825;-85
2021/12/04 19:07:33;;;;;;;;;5.25;5.00;;;;;;;;6246670;22;29925;-86
2021/12/04 19:15:05;;;;;;;;;6.75;5.25;;;;;;;;6264601;22;28518;-85
2021/12/04 19:17:33;;;;;;;;;5.75;4.50;;;;;;;;6237052;22;28518;-85
2021/12/04 19:20:24;;;;;;;;;5.75;4.75;;;;;;;;6236814;22;29638;-86
2021/12/04 19:23:04;;;;;;;;;9.25;6.75;;;;;;;;6235783;22;28537;-85
2021/12/04 19:25:32;;;;;;;;;11.25;8.75;;;;;;;;6235448;22;28564;-86
2021/12/04 19:27:58;;;;;;;;;9.50;9.50;;;;;;;;6263763;22;28471;-85
2021/12/04 19:36:49;;;;;;;;;10.00;9.50;;;;;;;;6139983;23;28528;-85
2021/12/04 19:50:45;;;;;;;;;19.25;14.25;;;;;;;;6132001;23;28555;-85
2021/12/04 19:56:07;;;;;;;;;10.00;9.00;;;;;;;;6134805;23;28600;-85
2021/12/04 19:58:46;;;;;;;;;10.25;9.25;;;;;;;;6106817;23;28767;-85
2021/12/04 20:01:29;;;;;;;;;26.50;17.50;;;;;;;;6134309;23;28695;-86
2021/12/04 20:16:33;;;;;;;;;9.25;9.25;;;;;;;;6039361;23;28650;-87
2021/12/04 20:19:07;;;;;;;;;17.25;8.75;;;;;;;;5985165;23;28567;-86
2021/12/04 20:21:41;;;;;;;;;11.00;5.25;;;;;;;;5991546;23;28436;-87
2021/12/04 20:27:42;;;;;;;;;5.00;5.00;;;;;;;;5967014;23;28056;-84
2021/12/04 21:50:27;;;;;;;;;1.00;1.00;;;;;;;;6244285;22;29143;-80
2021/12/04 21:52:53;;;;;;;;;3.25;2.00;;;;;;;;6243394;22;28566;-80
